sensor_id;sensor_type;location;lat;lon;timestamp;pressure;altitude;pressure_sealevel;temperature;humidity
72959;BME280;60008;50.826;6.896;2022-08-21T00:01:35;101125.47;;;16.47;81.61
72959;BME280;60008;50.826;6.896;2022-08-21T00:04:06;101130.03;;;16.32;80.66
72959;BME280;60008;50.826;6.896;2022-08-21T00:06:34;101129.00;;;16.33;81.06
72959;BME280;60008;50.826;6.896;2022-08-21T00:09:02;101122.31;;;16.22;80.60
72959;BME280;60008;50.826;6.896;2022-08-21T00:11:33;101118.34;;;16.18;80.16
72959;BME280;60008;50.826;6.896;2022-08-21T00:14:02;101116.66;;;16.17;80.69
72959;BME280;60008;50.826;6.896;2022-08-21T00:16:29;101113.72;;;16.27;80.92
72959;BME280;60008;50.826;6.896;2022-08-21T00:18:56;101114.81;;;16.32;81.09
72959;BME280;60008;50.826;6.896;2022-08-21T00:21:23;101112.50;;;16.29;81.13
72959;BME280;60008;50.826;6.896;2022-08-21T00:23:49;101114.75;;;16.11;79.56
72959;BME280;60008;50.826;6.896;2022-08-21T00:26:16;101105.06;;;16.10;81.49
72959;BME280;60008;50.826;6.896;2022-08-21T00:28:42;101107.84;;;16.02;80.75
72959;BME280;60008;50.826;6.896;2022-08-21T00:31:12;101103.50;;;16.01;81.30
72959;BME280;60008;50.826;6.896;2022-08-21T00:33:39;101100.66;;;16.02;81.78
72959;BME280;60008;50.826;6.896;2022-08-21T00:36:05;101099.81;;;16.17;81.91
72959;BME280;60008;50.826;6.896;2022-08-21T00:38:32;101094.47;;;16.17;80.75
72959;BME280;60008;50.826;6.896;2022-08-21T00:41:01;101100.34;;;16.12;80.78
72959;BME280;60008;50.826;6.896;2022-08-21T00:43:49;101106.66;;;16.04;81.62
72959;BME280;60008;50.826;6.896;2022-08-21T00:46:17;101104.06;;;15.96;81.10
72959;BME280;60008;50.826;6.896;2022-08-21T00:48:43;101103.44;;;15.94;82.07
72959;BME280;60008;50.826;6.896;2022-08-21T00:51:14;101108.16;;;15.92;80.86
72959;BME280;60008;50.826;6.896;2022-08-21T00:53:43;101101.31;;;15.90;82.08
72959;BME280;60008;50.826;6.896;2022-08-21T00:56:19;101104.81;;;15.90;81.61
72959;BME280;60008;50.826;6.896;2022-08-21T00:58:47;101100.88;;;15.72;82.31
72959;BME280;60008;50.826;6.896;2022-08-21T01:01:20;101102.19;;;15.76;82.53
72959;BME280;60008;50.826;6.896;2022-08-21T01:03:47;101105.84;;;15.75;83.20
72959;BME280;60008;50.826;6.896;2022-08-21T01:06:15;101101.44;;;15.67;81.51
72959;BME280;60008;50.826;6.896;2022-08-21T01:08:42;101102.53;;;15.58;82.03
72959;BME280;60008;50.826;6.896;2022-08-21T01:11:14;101099.84;;;15.43;82.44
72959;BME280;60008;50.826;6.896;2022-08-21T01:13:42;101097.97;;;15.44;82.72
72959;BME280;60008;50.826;6.896;2022-08-21T01:16:15;101102.97;;;15.47;82.10
72959;BME280;60008;50.826;6.896;2022-08-21T01:18:44;101104.03;;;15.46;81.78
72959;BME280;60008;50.826;6.896;2022-08-21T01:21:14;101110.06;;;15.40;82.13
72959;BME280;60008;50.826;6.896;2022-08-21T01:23:43;101109.69;;;15.43;82.97
72959;BME280;60008;50.826;6.896;2022-08-21T01:26:13;101101.41;;;15.38;82.28
72959;BME280;60008;50.826;6.896;2022-08-21T01:28:46;101105.91;;;15.37;82.53
72959;BME280;60008;50.826;6.896;2022-08-21T01:31:17;101110.41;;;15.37;81.58
72959;BME280;60008;50.826;6.896;2022-08-21T01:33:51;101107.09;;;15.35;82.30
72959;BME280;60008;50.826;6.896;2022-08-21T01:36:18;101105.06;;;15.37;83.30
72959;BME280;60008;50.826;6.896;2022-08-21T01:38:45;101102.41;;;15.37;82.70
72959;BME280;60008;50.826;6.896;2022-08-21T01:41:14;101106.44;;;15.33;82.47
72959;BME280;60008;50.826;6.896;2022-08-21T01:43:42;101099.97;;;15.27;82.37
72959;BME280;60008;50.826;6.896;2022-08-21T01:46:10;101104.78;;;15.32;83.39
72959;BME280;60008;50.826;6.896;2022-08-21T01:48:37;101097.31;;;15.27;82.76
72959;BME280;60008;50.826;6.896;2022-08-21T01:51:05;101098.81;;;15.30;82.25
72959;BME280;60008;50.826;6.896;2022-08-21T01:53:33;101091.69;;;15.22;82.58
72959;BME280;60008;50.826;6.896;2022-08-21T01:56:07;101091.59;;;15.16;82.02
72959;BME280;60008;50.826;6.896;2022-08-21T01:58:39;101089.09;;;15.14;82.36
72959;BME280;60008;50.826;6.896;2022-08-21T02:01:05;101085.03;;;15.04;82.34
72959;BME280;60008;50.826;6.896;2022-08-21T02:03:32;101090.56;;;15.02;83.87
72959;BME280;60008;50.826;6.896;2022-08-21T02:06:03;101089.47;;;15.11;84.19
72959;BME280;60008;50.826;6.896;2022-08-21T02:08:30;101091.97;;;15.13;82.08
72959;BME280;60008;50.826;6.896;2022-08-21T02:10:57;101086.50;;;15.06;83.16
72959;BME280;60008;50.826;6.896;2022-08-21T02:13:23;101085.66;;;15.06;82.34
72959;BME280;60008;50.826;6.896;2022-08-21T02:15:50;101083.00;;;15.06;82.70
72959;BME280;60008;50.826;6.896;2022-08-21T02:18:17;101080.53;;;15.04;82.30
72959;BME280;60008;50.826;6.896;2022-08-21T02:20:46;101083.06;;;14.98;82.25
72959;BME280;60008;50.826;6.896;2022-08-21T02:23:14;101077.81;;;14.89;82.79
72959;BME280;60008;50.826;6.896;2022-08-21T02:25:41;101077.81;;;14.89;82.92
72959;BME280;60008;50.826;6.896;2022-08-21T02:28:11;101080.38;;;14.83;82.48
72959;BME280;60008;50.826;6.896;2022-08-21T02:30:42;101078.66;;;14.90;83.24
72959;BME280;60008;50.826;6.896;2022-08-21T02:33:10;101075.47;;;14.95;82.95
72959;BME280;60008;50.826;6.896;2022-08-21T02:35:40;101079.97;;;14.94;83.36
72959;BME280;60008;50.826;6.896;2022-08-21T02:38:11;101067.97;;;14.90;82.74
72959;BME280;60008;50.826;6.896;2022-08-21T02:40:41;101073.16;;;14.92;83.97
72959;BME280;60008;50.826;6.896;2022-08-21T02:43:13;101066.84;;;14.84;83.58
72959;BME280;60008;50.826;6.896;2022-08-21T02:45:41;101067.97;;;14.90;84.31
72959;BME280;60008;50.826;6.896;2022-08-21T02:48:11;101063.47;;;14.90;83.23
72959;BME280;60008;50.826;6.896;2022-08-21T02:50:45;101061.63;;;14.91;83.90
72959;BME280;60008;50.826;6.896;2022-08-21T02:53:13;101070.22;;;14.78;83.39
72959;BME280;60008;50.826;6.896;2022-08-21T02:55:46;101066.50;;;14.65;83.74
72959;BME280;60008;50.826;6.896;2022-08-21T02:58:16;101068.88;;;14.60;84.27
72959;BME280;60008;50.826;6.896;2022-08-21T03:00:44;101068.53;;;14.63;84.37
72959;BME280;60008;50.826;6.896;2022-08-21T03:03:10;101071.03;;;14.64;85.36
72959;BME280;60008;50.826;6.896;2022-08-21T03:05:38;101071.56;;;14.60;84.19
72959;BME280;60008;50.826;6.896;2022-08-21T03:08:07;101072.59;;;14.59;84.17
72959;BME280;60008;50.826;6.896;2022-08-21T03:10:38;101070.19;;;14.64;84.34
72959;BME280;60008;50.826;6.896;2022-08-21T03:13:07;101070.00;;;14.65;85.46
72959;BME280;60008;50.826;6.896;2022-08-21T03:15:35;101068.81;;;14.68;84.26
72959;BME280;60008;50.826;6.896;2022-08-21T03:18:04;101068.09;;;14.59;84.51
72959;BME280;60008;50.826;6.896;2022-08-21T03:20:31;101066.19;;;14.45;85.23
72959;BME280;60008;50.826;6.896;2022-08-21T03:22:59;101074.13;;;14.53;85.55
72959;BME280;60008;50.826;6.896;2022-08-21T03:25:28;101067.94;;;14.53;85.47
72959;BME280;60008;50.826;6.896;2022-08-21T03:28:09;101067.41;;;14.57;85.97
72959;BME280;60008;50.826;6.896;2022-08-21T03:30:38;101065.00;;;14.48;84.39
72959;BME280;60008;50.826;6.896;2022-08-21T03:33:05;101069.78;;;14.52;85.02
72959;BME280;60008;50.826;6.896;2022-08-21T03:35:31;101074.13;;;14.53;85.21
72959;BME280;60008;50.826;6.896;2022-08-21T03:37:58;101071.16;;;14.48;84.79
72959;BME280;60008;50.826;6.896;2022-08-21T03:40:25;101072.69;;;14.43;84.86
72959;BME280;60008;50.826;6.896;2022-08-21T03:42:52;101071.16;;;14.48;86.12
72959;BME280;60008;50.826;6.896;2022-08-21T03:45:18;101069.63;;;14.54;86.02
72959;BME280;60008;50.826;6.896;2022-08-21T03:47:52;101073.94;;;14.55;86.85
72959;BME280;60008;50.826;6.896;2022-08-21T03:50:19;101072.81;;;14.49;86.04
72959;BME280;60008;50.826;6.896;2022-08-21T03:52:45;101075.13;;;14.52;85.98
72959;BME280;60008;50.826;6.896;2022-08-21T03:55:12;101076.84;;;14.45;86.56
72959;BME280;60008;50.826;6.896;2022-08-21T03:57:39;101076.72;;;14.39;86.69
72959;BME280;60008;50.826;6.896;2022-08-21T04:00:06;101067.88;;;14.38;86.46
72959;BME280;60008;50.826;6.896;2022-08-21T04:02:35;101076.91;;;14.37;87.26
72959;BME280;60008;50.826;6.896;2022-08-21T04:05:02;101072.41;;;14.29;86.62
72959;BME280;60008;50.826;6.896;2022-08-21T04:07:29;101071.72;;;14.36;86.35
72959;BME280;60008;50.826;6.896;2022-08-21T04:09:56;101076.09;;;14.28;85.86
72959;BME280;60008;50.826;6.896;2022-08-21T04:12:22;101083.41;;;14.35;87.59
72959;BME280;60008;50.826;6.896;2022-08-21T04:14:50;101076.91;;;14.29;86.38
72959;BME280;60008;50.826;6.896;2022-08-21T04:17:17;101083.16;;;14.13;86.66
72959;BME280;60008;50.826;6.896;2022-08-21T04:19:44;101088.88;;;14.10;86.39
72959;BME280;60008;50.826;6.896;2022-08-21T04:22:18;101086.34;;;14.09;85.96
72959;BME280;60008;50.826;6.896;2022-08-21T04:24:44;101092.34;;;14.11;86.55
72959;BME280;60008;50.826;6.896;2022-08-21T04:27:11;101090.50;;;14.11;86.06
72959;BME280;60008;50.826;6.896;2022-08-21T04:29:38;101094.75;;;13.98;86.75
72959;BME280;60008;50.826;6.896;2022-08-21T04:32:05;101095.72;;;14.05;87.75
72959;BME280;60008;50.826;6.896;2022-08-21T04:34:32;101102.34;;;14.09;87.49
72959;BME280;60008;50.826;6.896;2022-08-21T04:36:59;101099.34;;;14.12;87.11
72959;BME280;60008;50.826;6.896;2022-08-21T04:39:25;101095.50;;;14.14;86.52
72959;BME280;60008;50.826;6.896;2022-08-21T04:41:55;101114.34;;;14.13;86.20
72959;BME280;60008;50.826;6.896;2022-08-21T04:44:22;101115.81;;;14.15;86.33
72959;BME280;60008;50.826;6.896;2022-08-21T04:46:48;101119.47;;;14.14;85.97
72959;BME280;60008;50.826;6.896;2022-08-21T04:49:15;101113.28;;;14.22;85.87
72959;BME280;60008;50.826;6.896;2022-08-21T04:51:41;101115.22;;;14.36;85.75
72959;BME280;60008;50.826;6.896;2022-08-21T04:54:17;101114.88;;;14.39;85.27
72959;BME280;60008;50.826;6.896;2022-08-21T04:56:53;101113.56;;;14.35;84.28
72959;BME280;60008;50.826;6.896;2022-08-21T04:59:31;101120.09;;;14.24;84.64
72959;BME280;60008;50.826;6.896;2022-08-21T05:01:59;101111.59;;;14.29;84.91
72959;BME280;60008;50.826;6.896;2022-08-21T05:04:29;101114.03;;;14.39;85.25
72959;BME280;60008;50.826;6.896;2022-08-21T05:06:59;101121.56;;;14.35;85.69
72959;BME280;60008;50.826;6.896;2022-08-21T05:09:28;101111.56;;;14.37;85.16
72959;BME280;60008;50.826;6.896;2022-08-21T05:11:55;101115.56;;;14.33;84.81
72959;BME280;60008;50.826;6.896;2022-08-21T05:14:21;101122.59;;;14.34;85.98
72959;BME280;60008;50.826;6.896;2022-08-21T05:16:48;101119.69;;;14.44;86.25
72959;BME280;60008;50.826;6.896;2022-08-21T05:19:14;101113.66;;;14.50;84.54
72959;BME280;60008;50.826;6.896;2022-08-21T05:21:44;101124.44;;;14.56;83.79
72959;BME280;60008;50.826;6.896;2022-08-21T05:24:11;101122.06;;;14.61;84.17
72959;BME280;60008;50.826;6.896;2022-08-21T05:26:38;101119.75;;;14.58;84.01
72959;BME280;60008;50.826;6.896;2022-08-21T05:29:16;101115.25;;;14.59;84.43
72959;BME280;60008;50.826;6.896;2022-08-21T05:31:45;101112.88;;;14.64;83.98
72959;BME280;60008;50.826;6.896;2022-08-21T05:34:14;101119.69;;;14.66;85.62
72959;BME280;60008;50.826;6.896;2022-08-21T05:36:41;101120.84;;;14.72;85.10
72959;BME280;60008;50.826;6.896;2022-08-21T05:39:08;101109.25;;;14.79;84.95
72959;BME280;60008;50.826;6.896;2022-08-21T05:41:34;101110.56;;;14.83;84.62
72959;BME280;60008;50.826;6.896;2022-08-21T05:44:01;101118.16;;;14.95;84.74
72959;BME280;60008;50.826;6.896;2022-08-21T05:46:35;101114.38;;;15.04;84.15
72959;BME280;60008;50.826;6.896;2022-08-21T05:49:04;101115.50;;;15.09;82.25
72959;BME280;60008;50.826;6.896;2022-08-21T05:51:31;101113.81;;;15.16;84.37
72959;BME280;60008;50.826;6.896;2022-08-21T05:53:58;101117.28;;;15.17;81.88
72959;BME280;60008;50.826;6.896;2022-08-21T05:56:25;101118.03;;;15.25;82.33
72959;BME280;60008;50.826;6.896;2022-08-21T05:58:51;101118.44;;;15.37;83.26
72959;BME280;60008;50.826;6.896;2022-08-21T06:01:18;101119.19;;;15.45;82.11
72959;BME280;60008;50.826;6.896;2022-08-21T06:03:45;101130.81;;;15.53;80.72
72959;BME280;60008;50.826;6.896;2022-08-21T06:06:11;101118.75;;;15.57;80.02
72959;BME280;60008;50.826;6.896;2022-08-21T06:08:38;101121.72;;;15.62;79.70
72959;BME280;60008;50.826;6.896;2022-08-21T06:11:05;101125.28;;;15.69;80.08
72959;BME280;60008;50.826;6.896;2022-08-21T06:13:33;101121.31;;;15.79;79.10
72959;BME280;60008;50.826;6.896;2022-08-21T06:16:11;101125.00;;;15.93;79.06
72959;BME280;60008;50.826;6.896;2022-08-21T06:18:42;101124.00;;;16.08;77.17
72959;BME280;60008;50.826;6.896;2022-08-21T06:21:10;101123.50;;;16.20;75.58
72959;BME280;60008;50.826;6.896;2022-08-21T06:23:37;101125.25;;;16.27;77.59
72959;BME280;60008;50.826;6.896;2022-08-21T06:26:05;101117.28;;;16.34;76.64
72959;BME280;60008;50.826;6.896;2022-08-21T06:28:32;101116.91;;;16.37;76.89
72959;BME280;60008;50.826;6.896;2022-08-21T06:31:00;101114.31;;;16.43;78.32
72959;BME280;60008;50.826;6.896;2022-08-21T06:33:27;101108.84;;;16.51;76.45
72959;BME280;60008;50.826;6.896;2022-08-21T06:35:58;101113.97;;;16.67;74.69
72959;BME280;60008;50.826;6.896;2022-08-21T06:38:24;101109.97;;;16.78;73.61
72959;BME280;60008;50.826;6.896;2022-08-21T06:40:51;101105.94;;;16.89;72.68
72959;BME280;60008;50.826;6.896;2022-08-21T06:43:18;101102.09;;;16.98;72.99
72959;BME280;60008;50.826;6.896;2022-08-21T06:45:45;101107.72;;;17.03;72.52
72959;BME280;60008;50.826;6.896;2022-08-21T06:48:12;101107.94;;;17.08;72.24
72959;BME280;60008;50.826;6.896;2022-08-21T06:50:44;101105.34;;;17.14;72.80
72959;BME280;60008;50.826;6.896;2022-08-21T06:53:13;101107.63;;;17.17;70.53
72959;BME280;60008;50.826;6.896;2022-08-21T06:55:41;101110.78;;;17.27;70.51
72959;BME280;60008;50.826;6.896;2022-08-21T06:58:09;101105.66;;;17.33;70.88
72959;BME280;60008;50.826;6.896;2022-08-21T07:00:39;101114.88;;;17.51;69.39
72959;BME280;60008;50.826;6.896;2022-08-21T07:03:07;101107.72;;;17.58;69.65
72959;BME280;60008;50.826;6.896;2022-08-21T07:05:34;101115.81;;;17.65;69.83
72959;BME280;60008;50.826;6.896;2022-08-21T07:08:00;101113.34;;;17.70;68.31
72959;BME280;60008;50.826;6.896;2022-08-21T07:10:27;101112.81;;;17.81;68.35
72959;BME280;60008;50.826;6.896;2022-08-21T07:12:54;101114.31;;;17.90;67.53
72959;BME280;60008;50.826;6.896;2022-08-21T07:15:29;101118.44;;;17.99;67.47
72959;BME280;60008;50.826;6.896;2022-08-21T07:17:58;101122.66;;;18.21;65.44
72959;BME280;60008;50.826;6.896;2022-08-21T07:20:29;101117.53;;;18.26;67.07
72959;BME280;60008;50.826;6.896;2022-08-21T07:22:58;101116.91;;;18.24;67.05
72959;BME280;60008;50.826;6.896;2022-08-21T07:25:26;101124.63;;;18.47;65.54
72959;BME280;60008;50.826;6.896;2022-08-21T07:27:52;101122.41;;;18.57;65.58
72959;BME280;60008;50.826;6.896;2022-08-21T07:30:19;101120.59;;;18.77;64.80
72959;BME280;60008;50.826;6.896;2022-08-21T07:32:46;101119.75;;;18.83;64.48
72959;BME280;60008;50.826;6.896;2022-08-21T07:35:16;101119.16;;;18.94;63.55
72959;BME280;60008;50.826;6.896;2022-08-21T07:37:43;101112.13;;;18.93;62.74
72959;BME280;60008;50.826;6.896;2022-08-21T07:40:11;101115.25;;;19.10;62.42
72959;BME280;60008;50.826;6.896;2022-08-21T07:42:42;101111.53;;;19.18;62.54
72959;BME280;60008;50.826;6.896;2022-08-21T07:45:10;101105.50;;;19.22;62.09
72959;BME280;60008;50.826;6.896;2022-08-21T07:47:37;101114.00;;;19.26;61.77
72959;BME280;60008;50.826;6.896;2022-08-21T07:50:10;101107.16;;;19.36;61.34
72959;BME280;60008;50.826;6.896;2022-08-21T07:52:39;101110.69;;;19.50;60.07
72959;BME280;60008;50.826;6.896;2022-08-21T07:55:07;101119.34;;;19.58;61.05
72959;BME280;60008;50.826;6.896;2022-08-21T07:57:34;101117.47;;;19.72;60.54
72959;BME280;60008;50.826;6.896;2022-08-21T08:00:07;101114.75;;;19.79;59.91
72959;BME280;60008;50.826;6.896;2022-08-21T08:02:35;101111.91;;;19.67;60.45
72959;BME280;60008;50.826;6.896;2022-08-21T08:05:03;101112.22;;;19.90;59.53
72959;BME280;60008;50.826;6.896;2022-08-21T08:07:30;101113.22;;;20.02;58.49
72959;BME280;60008;50.826;6.896;2022-08-21T08:09:57;101116.03;;;20.20;58.67
72959;BME280;60008;50.826;6.896;2022-08-21T08:12:24;101112.88;;;20.37;58.87
72959;BME280;60008;50.826;6.896;2022-08-21T08:14:59;101114.41;;;20.57;58.39
72959;BME280;60008;50.826;6.896;2022-08-21T08:17:27;101113.44;;;20.83;56.14
72959;BME280;60008;50.826;6.896;2022-08-21T08:19:54;101114.31;;;22.24;52.13
72959;BME280;60008;50.826;6.896;2022-08-21T08:22:22;101114.16;;;23.31;49.71
72959;BME280;60008;50.826;6.896;2022-08-21T08:24:52;101103.31;;;25.02;45.29
72959;BME280;60008;50.826;6.896;2022-08-21T08:27:20;101104.78;;;25.43;44.29
72959;BME280;60008;50.826;6.896;2022-08-21T08:29:47;101091.59;;;26.33;40.94
72959;BME280;60008;50.826;6.896;2022-08-21T08:32:14;101101.81;;;26.53;40.46
72959;BME280;60008;50.826;6.896;2022-08-21T08:34:41;101100.16;;;27.42;38.55
72959;BME280;60008;50.826;6.896;2022-08-21T08:37:08;101100.72;;;28.93;35.75
72959;BME280;60008;50.826;6.896;2022-08-21T08:39:36;101101.13;;;28.25;36.43
72959;BME280;60008;50.826;6.896;2022-08-21T08:42:27;101094.97;;;25.59;41.58
72959;BME280;60008;50.826;6.896;2022-08-21T08:45:09;101090.09;;;27.95;38.80
72959;BME280;60008;50.826;6.896;2022-08-21T08:47:41;101086.50;;;28.76;35.74
72959;BME280;60008;50.826;6.896;2022-08-21T08:52:58;101086.22;;;28.68;35.98
72959;BME280;60008;50.826;6.896;2022-08-21T08:55:35;101080.19;;;28.56;35.06
72959;BME280;60008;50.826;6.896;2022-08-21T08:58:03;101078.59;;;28.70;34.98
72959;BME280;60008;50.826;6.896;2022-08-21T09:00:31;101085.44;;;28.77;37.32
72959;BME280;60008;50.826;6.896;2022-08-21T09:03:01;101075.75;;;29.66;35.20
72959;BME280;60008;50.826;6.896;2022-08-21T09:05:48;101074.72;;;29.16;34.95
72959;BME280;60008;50.826;6.896;2022-08-21T09:11:19;101066.41;;;29.82;35.17
72959;BME280;60008;50.826;6.896;2022-08-21T09:14:13;101064.16;;;29.99;32.68
72959;BME280;60008;50.826;6.896;2022-08-21T09:16:47;101064.91;;;26.09;39.38
72959;BME280;60008;50.826;6.896;2022-08-21T09:19:28;101055.59;;;26.53;39.95
72959;BME280;60008;50.826;6.896;2022-08-21T09:22:09;101057.19;;;28.06;37.03
72959;BME280;60008;50.826;6.896;2022-08-21T09:24:55;101051.84;;;29.02;34.73
72959;BME280;60008;50.826;6.896;2022-08-21T09:27:25;101058.06;;;29.48;35.57
72959;BME280;60008;50.826;6.896;2022-08-21T09:29:54;101051.91;;;29.91;34.85
72959;BME280;60008;50.826;6.896;2022-08-21T09:32:30;101051.97;;;26.42;39.57
72959;BME280;60008;50.826;6.896;2022-08-21T09:43:25;101053.56;;;30.36;33.25
72959;BME280;60008;50.826;6.896;2022-08-21T09:46:10;101056.44;;;28.51;35.67
72959;BME280;60008;50.826;6.896;2022-08-21T09:49:01;101047.69;;;26.20;40.84
72959;BME280;60008;50.826;6.896;2022-08-21T09:51:36;101037.91;;;29.29;36.54
72959;BME280;60008;50.826;6.896;2022-08-21T09:56:37;101046.09;;;30.47;33.93
72959;BME280;60008;50.826;6.896;2022-08-21T09:59:32;101039.22;;;29.41;33.28
72959;BME280;60008;50.826;6.896;2022-08-21T10:02:30;101026.50;;;31.02;31.31
72959;BME280;60008;50.826;6.896;2022-08-21T10:07:32;101023.19;;;29.79;32.15
72959;BME280;60008;50.826;6.896;2022-08-21T10:10:01;101026.44;;;28.86;33.93
72959;BME280;60008;50.826;6.896;2022-08-21T10:13:26;101025.03;;;29.34;32.35
72959;BME280;60008;50.826;6.896;2022-08-21T10:15:49;101017.88;;;30.13;32.69
72959;BME280;60008;50.826;6.896;2022-08-21T10:18:42;101012.41;;;31.38;30.19
72959;BME280;60008;50.826;6.896;2022-08-21T10:24:12;101011.13;;;31.06;30.59
72959;BME280;60008;50.826;6.896;2022-08-21T10:29:57;101011.66;;;30.75;31.81
72959;BME280;60008;50.826;6.896;2022-08-21T10:38:58;101001.47;;;32.87;28.83
72959;BME280;60008;50.826;6.896;2022-08-21T10:42:11;100999.94;;;31.27;30.03
72959;BME280;60008;50.826;6.896;2022-08-21T10:47:46;100992.25;;;30.42;32.40
72959;BME280;60008;50.826;6.896;2022-08-21T10:50:41;100989.84;;;29.23;33.53
72959;BME280;60008;50.826;6.896;2022-08-21T10:58:49;100986.06;;;28.28;34.80
72959;BME280;60008;50.826;6.896;2022-08-21T11:01:26;100975.41;;;28.87;33.08
72959;BME280;60008;50.826;6.896;2022-08-21T11:06:32;100976.53;;;28.20;34.50
72959;BME280;60008;50.826;6.896;2022-08-21T11:09:20;100969.06;;;30.30;32.39
72959;BME280;60008;50.826;6.896;2022-08-21T11:12:24;100970.41;;;30.37;31.92
72959;BME280;60008;50.826;6.896;2022-08-21T11:15:04;100967.34;;;30.44;31.50
72959;BME280;60008;50.826;6.896;2022-08-21T11:18:09;100964.16;;;30.27;30.47
72959;BME280;60008;50.826;6.896;2022-08-21T11:23:39;100970.22;;;30.57;30.26
72959;BME280;60008;50.826;6.896;2022-08-21T11:26:12;100964.78;;;28.70;31.88
72959;BME280;60008;50.826;6.896;2022-08-21T11:28:59;100966.41;;;29.71;31.10
72959;BME280;60008;50.826;6.896;2022-08-21T11:45:48;100958.78;;;28.38;33.51
72959;BME280;60008;50.826;6.896;2022-08-21T11:48:45;100952.28;;;28.69;33.98
72959;BME280;60008;50.826;6.896;2022-08-21T11:51:22;100956.59;;;28.25;35.51
72959;BME280;60008;50.826;6.896;2022-08-21T11:54:05;100954.38;;;27.25;35.70
72959;BME280;60008;50.826;6.896;2022-08-21T11:56:37;100955.81;;;25.68;39.34
72959;BME280;60008;50.826;6.896;2022-08-21T11:59:10;100952.66;;;25.55;39.87
72959;BME280;60008;50.826;6.896;2022-08-21T12:01:42;100948.75;;;26.21;39.03
72959;BME280;60008;50.826;6.896;2022-08-21T12:04:28;100946.34;;;25.71;39.22
72959;BME280;60008;50.826;6.896;2022-08-21T12:06:56;100944.44;;;26.25;38.54
72959;BME280;60008;50.826;6.896;2022-08-21T12:12:00;100943.88;;;26.54;38.48
72959;BME280;60008;50.826;6.896;2022-08-21T12:14:43;100934.47;;;26.35;39.31
72959;BME280;60008;50.826;6.896;2022-08-21T12:17:21;100942.28;;;26.27;40.18
72959;BME280;60008;50.826;6.896;2022-08-21T12:19:59;100934.03;;;26.48;37.12
72959;BME280;60008;50.826;6.896;2022-08-21T12:22:38;100928.06;;;26.51;37.46
72959;BME280;60008;50.826;6.896;2022-08-21T12:25:10;100925.41;;;26.61;37.70
72959;BME280;60008;50.826;6.896;2022-08-21T12:27:52;100930.84;;;26.61;38.92
72959;BME280;60008;50.826;6.896;2022-08-21T12:33:05;100931.75;;;26.77;38.35
72959;BME280;60008;50.826;6.896;2022-08-21T12:35:45;100928.41;;;26.28;38.52
72959;BME280;60008;50.826;6.896;2022-08-21T12:38:27;100925.91;;;26.17;38.70
72959;BME280;60008;50.826;6.896;2022-08-21T12:40:57;100919.03;;;26.41;39.33
72959;BME280;60008;50.826;6.896;2022-08-21T12:43:29;100924.25;;;26.16;39.67
72959;BME280;60008;50.826;6.896;2022-08-21T12:45:57;100922.03;;;25.86;38.27
72959;BME280;60008;50.826;6.896;2022-08-21T12:51:21;100924.31;;;26.26;38.73
72959;BME280;60008;50.826;6.896;2022-08-21T12:53:52;100922.94;;;26.23;37.21
72959;BME280;60008;50.826;6.896;2022-08-21T12:56:23;100917.78;;;26.58;36.45
72959;BME280;60008;50.826;6.896;2022-08-21T12:58:54;100911.72;;;26.15;39.02
72959;BME280;60008;50.826;6.896;2022-08-21T13:01:44;100925.09;;;26.21;39.40
72959;BME280;60008;50.826;6.896;2022-08-21T13:04:16;100912.22;;;26.38;39.29
72959;BME280;60008;50.826;6.896;2022-08-21T13:06:47;100910.25;;;26.34;39.57
72959;BME280;60008;50.826;6.896;2022-08-21T13:09:18;100918.97;;;26.09;37.87
72959;BME280;60008;50.826;6.896;2022-08-21T13:11:47;100918.84;;;25.94;39.26
72959;BME280;60008;50.826;6.896;2022-08-21T13:14:38;100915.13;;;26.00;40.33
72959;BME280;60008;50.826;6.896;2022-08-21T13:17:12;100905.63;;;26.34;39.73
72959;BME280;60008;50.826;6.896;2022-08-21T13:19:54;100901.19;;;26.23;38.94
72959;BME280;60008;50.826;6.896;2022-08-21T13:22:21;100902.72;;;25.82;39.53
72959;BME280;60008;50.826;6.896;2022-08-21T13:25:01;100901.44;;;25.90;39.00
72959;BME280;60008;50.826;6.896;2022-08-21T13:27:33;100907.38;;;25.87;40.66
72959;BME280;60008;50.826;6.896;2022-08-21T13:30:08;100906.09;;;25.94;39.31
72959;BME280;60008;50.826;6.896;2022-08-21T13:32:38;100898.31;;;26.03;39.33
72959;BME280;60008;50.826;6.896;2022-08-21T13:35:12;100903.06;;;26.18;38.61
72959;BME280;60008;50.826;6.896;2022-08-21T13:37:42;100904.78;;;25.70;40.61
72959;BME280;60008;50.826;6.896;2022-08-21T13:40:11;100898.88;;;25.78;39.07
72959;BME280;60008;50.826;6.896;2022-08-21T13:42:42;100888.31;;;25.55;39.59
72959;BME280;60008;50.826;6.896;2022-08-21T13:45:24;100890.09;;;25.71;38.81
72959;BME280;60008;50.826;6.896;2022-08-21T13:47:51;100885.31;;;26.10;38.77
72959;BME280;60008;50.826;6.896;2022-08-21T13:50:21;100894.53;;;26.09;38.25
72959;BME280;60008;50.826;6.896;2022-08-21T13:52:56;100887.84;;;26.17;38.75
72959;BME280;60008;50.826;6.896;2022-08-21T13:55:24;100883.78;;;26.19;38.84
72959;BME280;60008;50.826;6.896;2022-08-21T13:58:02;100887.78;;;26.12;38.82
72959;BME280;60008;50.826;6.896;2022-08-21T14:00:31;100885.38;;;26.15;40.12
72959;BME280;60008;50.826;6.896;2022-08-21T14:03:07;100885.03;;;26.38;38.91
72959;BME280;60008;50.826;6.896;2022-08-21T14:05:44;100890.09;;;25.98;39.55
72959;BME280;60008;50.826;6.896;2022-08-21T14:08:14;100892.66;;;25.83;39.61
72959;BME280;60008;50.826;6.896;2022-08-21T14:10:45;100894.19;;;25.74;38.91
72959;BME280;60008;50.826;6.896;2022-08-21T14:13:30;100890.38;;;25.70;40.62
72959;BME280;60008;50.826;6.896;2022-08-21T14:16:11;100891.66;;;25.62;40.00
72959;BME280;60008;50.826;6.896;2022-08-21T14:18:50;100892.78;;;25.66;39.32
72959;BME280;60008;50.826;6.896;2022-08-21T14:21:35;100880.88;;;25.72;39.72